createdAt,value
2022-09-30T00:00:29.094Z,0.00
2022-09-30T00:01:29.134Z,0.00
2022-09-30T00:02:29.100Z,0.00
2022-09-30T00:03:29.078Z,0.00
2022-09-30T00:04:29.063Z,0.00
2022-09-30T00:05:29.047Z,0.00
2022-09-30T00:06:29.035Z,0.00
2022-09-30T00:07:29.031Z,0.00
2022-09-30T00:08:29.034Z,0.00
2022-09-30T00:09:29.050Z,0.00
2022-09-30T00:10:29.001Z,0.00
2022-09-30T00:11:28.994Z,0.00
2022-09-30T00:12:29.013Z,0.00
2022-09-30T00:13:28.976Z,0.00
2022-09-30T00:14:28.975Z,0.00
2022-09-30T00:15:28.949Z,0.00
2022-09-30T00:16:29.012Z,0.00
2022-09-30T00:17:28.932Z,0.00
2022-09-30T00:18:28.927Z,0.00
2022-09-30T00:19:28.916Z,0.00
2022-09-30T00:20:28.902Z,0.00
2022-09-30T00:21:28.906Z,0.00
2022-09-30T00:22:28.890Z,0.00
2022-09-30T00:23:28.870Z,0.00
2022-09-30T00:24:28.883Z,0.00
2022-09-30T00:25:28.846Z,0.00
2022-09-30T00:26:28.836Z,0.00
2022-09-30T00:27:28.835Z,0.00
2022-09-30T00:28:28.814Z,0.00
2022-09-30T00:29:28.832Z,0.00
2022-09-30T00:30:28.802Z,0.00
2022-09-30T00:31:28.847Z,0.00
2022-09-30T00:32:28.789Z,0.00
2022-09-30T00:33:28.766Z,0.00
2022-09-30T00:34:28.764Z,0.00
2022-09-30T00:35:28.774Z,0.00
2022-09-30T00:36:28.791Z,0.00
2022-09-30T00:37:28.723Z,0.00
2022-09-30T00:38:28.714Z,0.00
2022-09-30T00:39:28.713Z,0.00
2022-09-30T00:40:28.719Z,0.00
2022-09-30T00:41:28.688Z,0.00
2022-09-30T00:42:28.678Z,0.00
2022-09-30T00:43:28.735Z,0.00
2022-09-30T00:44:28.676Z,0.00
2022-09-30T00:45:28.659Z,0.00
2022-09-30T00:46:28.684Z,0.00
2022-09-30T00:47:28.648Z,0.00
2022-09-30T00:48:28.627Z,0.00
2022-09-30T00:49:28.634Z,0.00
2022-09-30T00:50:28.606Z,0.00
2022-09-30T00:51:28.610Z,0.00
2022-09-30T00:52:28.585Z,0.00
2022-09-30T00:53:28.557Z,0.00
2022-09-30T00:54:29.612Z,0.00
2022-09-30T00:55:28.546Z,0.00
2022-09-30T00:56:28.544Z,0.00
2022-09-30T00:57:28.545Z,0.00
2022-09-30T00:58:28.534Z,0.00
2022-09-30T00:59:28.522Z,0.00
2022-09-30T01:00:28.604Z,0.00
2022-09-30T01:01:28.492Z,0.00
2022-09-30T01:02:28.470Z,0.00
2022-09-30T01:03:28.469Z,0.00
2022-09-30T01:04:28.459Z,0.00
2022-09-30T01:05:28.466Z,0.00
2022-09-30T01:06:28.449Z,0.00
2022-09-30T01:07:28.445Z,0.00
2022-09-30T01:08:28.422Z,0.00
2022-09-30T01:09:28.465Z,0.00
2022-09-30T01:10:28.408Z,0.00
2022-09-30T01:11:28.409Z,0.00
2022-09-30T01:12:28.389Z,0.00
2022-09-30T01:13:28.380Z,0.00
2022-09-30T01:14:28.374Z,0.00
2022-09-30T01:15:28.353Z,0.00
2022-09-30T01:16:28.531Z,0.00
2022-09-30T01:17:28.341Z,0.00
2022-09-30T01:18:28.323Z,0.00
2022-09-30T01:19:28.318Z,0.00
2022-09-30T01:20:28.308Z,0.00
2022-09-30T01:21:28.315Z,0.00
2022-09-30T01:22:28.300Z,0.00
2022-09-30T01:23:28.303Z,0.00
2022-09-30T01:24:28.284Z,0.00
2022-09-30T01:25:28.254Z,0.00
2022-09-30T01:26:28.242Z,0.00
2022-09-30T01:27:28.235Z,0.00
2022-09-30T01:28:28.220Z,0.00
2022-09-30T01:29:28.248Z,0.00
2022-09-30T01:30:28.199Z,0.00
2022-09-30T01:31:28.240Z,0.00
2022-09-30T01:32:28.193Z,0.00
2022-09-30T01:33:28.177Z,0.00
2022-09-30T01:34:28.157Z,0.00
2022-09-30T01:35:28.164Z,0.00
2022-09-30T01:36:28.143Z,0.00
2022-09-30T01:37:28.132Z,0.00
2022-09-30T01:38:28.136Z,0.00
2022-09-30T01:39:28.121Z,0.00
2022-09-30T01:40:28.128Z,0.00
2022-09-30T01:41:28.110Z,0.00
2022-09-30T01:42:28.082Z,0.00
2022-09-30T01:43:28.077Z,0.00
2022-09-30T01:44:28.080Z,0.00
2022-09-30T01:45:28.073Z,0.00
2022-09-30T01:46:28.094Z,0.00
2022-09-30T01:47:28.064Z,0.00
2022-09-30T01:48:28.036Z,0.00
2022-09-30T01:49:28.025Z,0.00
2022-09-30T01:50:28.012Z,0.00
2022-09-30T01:51:27.993Z,0.00
2022-09-30T01:52:28.003Z,0.00
2022-09-30T01:53:27.970Z,0.00
2022-09-30T01:54:27.995Z,0.00
2022-09-30T01:55:27.962Z,0.00
2022-09-30T01:56:27.943Z,0.00
2022-09-30T01:57:27.948Z,0.00
2022-09-30T01:58:27.936Z,0.00
2022-09-30T01:59:27.939Z,0.00
2022-09-30T02:00:27.918Z,0.00
2022-09-30T02:01:28.901Z,0.00
2022-09-30T02:02:27.959Z,0.00
2022-09-30T02:03:27.876Z,0.00
2022-09-30T02:04:27.884Z,0.00
2022-09-30T02:05:27.855Z,0.00
2022-09-30T02:06:27.855Z,0.00
2022-09-30T02:07:27.838Z,0.00
2022-09-30T02:08:27.833Z,0.00
2022-09-30T02:09:27.867Z,0.00
2022-09-30T02:10:27.815Z,0.00
2022-09-30T02:11:27.799Z,0.00
2022-09-30T02:12:59.688Z,0.00
2022-09-30T02:13:27.841Z,0.00
2022-09-30T02:14:27.776Z,0.00
2022-09-30T02:15:27.765Z,0.00
2022-09-30T02:16:27.811Z,0.00
2022-09-30T02:17:27.744Z,0.00
2022-09-30T02:18:27.729Z,0.00
2022-09-30T02:19:27.744Z,0.00
2022-09-30T02:20:27.719Z,0.00
2022-09-30T02:21:27.708Z,0.00
2022-09-30T02:22:27.698Z,0.00
2022-09-30T02:23:27.701Z,0.00
2022-09-30T02:24:27.691Z,0.00
2022-09-30T02:25:27.667Z,0.00
2022-09-30T02:26:27.657Z,0.00
2022-09-30T02:27:27.699Z,0.00
2022-09-30T02:28:27.639Z,0.00
2022-09-30T02:29:27.629Z,0.00
2022-09-30T02:30:27.626Z,0.00
2022-09-30T02:31:27.639Z,0.00
2022-09-30T02:32:27.628Z,0.00
2022-09-30T02:33:27.596Z,0.00
2022-09-30T02:34:27.585Z,0.00
2022-09-30T02:35:27.585Z,0.00
2022-09-30T02:36:27.567Z,0.00
2022-09-30T02:37:27.581Z,0.00
2022-09-30T02:38:27.544Z,0.00
2022-09-30T02:39:27.552Z,0.00
2022-09-30T02:40:27.532Z,0.00
2022-09-30T02:41:27.523Z,0.00
2022-09-30T02:42:27.535Z,0.00
2022-09-30T02:43:27.501Z,0.00
2022-09-30T02:44:27.481Z,0.00
2022-09-30T02:45:27.472Z,0.00
2022-09-30T02:46:27.510Z,0.00
2022-09-30T02:47:27.478Z,0.00
2022-09-30T02:48:27.449Z,0.00
2022-09-30T02:49:27.452Z,0.00
2022-09-30T02:50:27.420Z,0.00
2022-09-30T02:51:27.410Z,0.00
2022-09-30T02:52:27.421Z,0.00
2022-09-30T02:53:27.387Z,0.00
2022-09-30T02:54:27.398Z,0.00
2022-09-30T02:55:27.373Z,0.00
2022-09-30T02:56:27.375Z,0.00
2022-09-30T02:57:27.346Z,0.00
2022-09-30T02:58:27.345Z,0.00
2022-09-30T02:59:27.340Z,0.00
2022-09-30T03:00:27.370Z,0.00
2022-09-30T03:01:27.307Z,0.00
2022-09-30T03:02:27.302Z,0.00
2022-09-30T03:03:27.293Z,0.00
2022-09-30T03:04:27.296Z,0.00
2022-09-30T03:05:27.279Z,0.00
2022-09-30T03:06:27.299Z,0.00
2022-09-30T03:07:27.247Z,0.00
2022-09-30T03:08:27.234Z,0.00
2022-09-30T03:09:27.281Z,0.00
2022-09-30T03:10:27.208Z,0.00
2022-09-30T03:11:27.214Z,0.00
2022-09-30T03:12:27.203Z,0.00
2022-09-30T03:13:27.190Z,0.00
2022-09-30T03:14:27.288Z,0.00
2022-09-30T03:15:27.174Z,0.00
2022-09-30T03:16:27.182Z,0.00
2022-09-30T03:17:27.150Z,0.00
2022-09-30T03:18:27.146Z,0.00
2022-09-30T03:19:27.136Z,0.00
2022-09-30T03:20:27.133Z,0.00
2022-09-30T03:21:27.127Z,0.00
2022-09-30T03:22:27.104Z,0.00
2022-09-30T03:23:27.097Z,0.00
2022-09-30T03:24:27.084Z,0.00
2022-09-30T03:25:27.070Z,0.00
2022-09-30T03:26:27.078Z,0.00
2022-09-30T03:27:27.064Z,0.00
2022-09-30T03:28:27.051Z,0.00
2022-09-30T03:29:27.054Z,0.00
2022-09-30T03:30:27.050Z,0.00
2022-09-30T03:31:27.052Z,0.00
2022-09-30T03:32:26.994Z,0.00
2022-09-30T03:33:27.020Z,0.00
2022-09-30T03:34:26.976Z,0.00
2022-09-30T03:35:26.988Z,0.00
2022-09-30T03:36:26.964Z,0.00
2022-09-30T03:37:26.945Z,0.00
2022-09-30T03:38:26.968Z,0.00
2022-09-30T03:39:26.922Z,0.00
2022-09-30T03:40:26.925Z,0.00
2022-09-30T03:41:26.908Z,0.00
2022-09-30T03:42:26.910Z,0.00
2022-09-30T03:43:26.952Z,0.00
2022-09-30T03:44:26.874Z,0.00
2022-09-30T03:45:26.873Z,0.00
2022-09-30T03:46:26.927Z,0.00
2022-09-30T03:47:26.858Z,0.00
2022-09-30T03:48:26.847Z,0.00
2022-09-30T03:49:26.851Z,0.00
2022-09-30T03:50:26.829Z,0.00
2022-09-30T03:51:26.838Z,0.00
2022-09-30T03:52:26.805Z,0.00
2022-09-30T03:53:26.800Z,0.00
2022-09-30T03:54:26.789Z,0.00
2022-09-30T03:55:26.780Z,0.00
2022-09-30T03:56:26.779Z,0.00
2022-09-30T03:57:27.759Z,0.00
2022-09-30T03:58:26.746Z,0.00
2022-09-30T03:59:26.739Z,0.00
2022-09-30T04:00:26.756Z,0.00
2022-09-30T04:01:26.730Z,0.00
2022-09-30T04:02:26.945Z,0.00
2022-09-30T04:03:26.714Z,0.00
2022-09-30T04:04:26.711Z,0.00
2022-09-30T04:05:26.688Z,0.00
2022-09-30T04:06:26.670Z,0.00
2022-09-30T04:07:26.664Z,0.00
2022-09-30T04:08:28.956Z,0.00
2022-09-30T04:09:26.828Z,0.00
2022-09-30T04:10:26.663Z,0.00
2022-09-30T04:11:26.634Z,0.00
2022-09-30T04:12:26.622Z,0.00
2022-09-30T04:13:26.606Z,0.00
2022-09-30T04:14:26.591Z,0.00
2022-09-30T04:15:26.603Z,0.00
2022-09-30T04:16:26.655Z,0.00
2022-09-30T04:17:26.571Z,0.00
2022-09-30T04:18:26.581Z,0.00
2022-09-30T04:19:26.534Z,0.00
2022-09-30T04:20:26.537Z,0.00
2022-09-30T04:21:26.523Z,0.00
2022-09-30T04:22:26.757Z,0.00
2022-09-30T04:23:27.516Z,0.00
2022-09-30T04:24:26.495Z,0.00
2022-09-30T04:25:26.486Z,0.00
2022-09-30T04:26:26.479Z,0.00
2022-09-30T04:27:26.468Z,0.00
2022-09-30T04:28:26.479Z,0.00
2022-09-30T04:29:26.450Z,0.00
2022-09-30T04:30:30.122Z,0.00
2022-09-30T04:31:28.473Z,0.00
2022-09-30T04:32:26.413Z,0.00
2022-09-30T04:33:26.416Z,0.00
2022-09-30T04:34:26.396Z,0.00
2022-09-30T04:35:26.397Z,0.00
2022-09-30T04:36:26.370Z,0.00
2022-09-30T04:37:26.371Z,0.00
2022-09-30T04:38:26.355Z,0.00
2022-09-30T04:39:26.360Z,0.00
2022-09-30T04:40:26.360Z,0.00
2022-09-30T04:41:26.358Z,0.00
2022-09-30T04:42:26.316Z,0.00
2022-09-30T04:43:26.304Z,0.00
2022-09-30T04:44:26.294Z,0.00
2022-09-30T04:45:26.474Z,0.00
2022-09-30T04:46:26.276Z,0.00
2022-09-30T04:47:26.260Z,0.00
2022-09-30T04:48:26.256Z,0.00
2022-09-30T04:49:26.244Z,0.00
2022-09-30T04:50:26.264Z,0.00
2022-09-30T04:51:26.229Z,0.00
2022-09-30T04:52:26.221Z,0.00
2022-09-30T04:53:26.221Z,0.00
2022-09-30T04:54:26.205Z,0.00
2022-09-30T04:55:26.205Z,0.00
2022-09-30T04:56:26.184Z,0.00
2022-09-30T04:57:26.172Z,0.00
2022-09-30T04:58:26.198Z,0.00
2022-09-30T04:59:26.145Z,0.00
2022-09-30T05:00:26.143Z,0.00
2022-09-30T05:01:26.141Z,0.00
2022-09-30T05:02:26.138Z,0.00
2022-09-30T05:03:26.128Z,0.00
2022-09-30T05:04:26.110Z,0.00
2022-09-30T05:05:26.091Z,0.00
2022-09-30T05:06:26.081Z,0.00
2022-09-30T05:07:26.084Z,0.00
2022-09-30T05:08:26.087Z,0.00
2022-09-30T05:09:26.190Z,0.00
2022-09-30T05:10:26.032Z,0.00
2022-09-30T05:11:26.034Z,0.00
2022-09-30T05:12:26.054Z,0.00
2022-09-30T05:13:26.027Z,0.00
2022-09-30T05:14:25.991Z,0.00
2022-09-30T05:15:26.998Z,0.00
2022-09-30T05:16:26.074Z,0.00
2022-09-30T05:17:25.996Z,0.00
2022-09-30T05:18:25.957Z,0.00
2022-09-30T05:19:25.948Z,0.00
2022-09-30T05:20:25.937Z,5.62
2022-09-30T05:21:25.929Z,5.62
2022-09-30T05:22:25.922Z,5.62
2022-09-30T05:23:25.928Z,5.62
2022-09-30T05:24:25.908Z,5.62
2022-09-30T05:25:25.900Z,5.62
2022-09-30T05:26:25.879Z,5.62
2022-09-30T05:27:25.857Z,5.62
2022-09-30T05:28:25.933Z,11.25
2022-09-30T05:29:25.894Z,11.25
2022-09-30T05:30:25.841Z,11.25
2022-09-30T05:31:25.917Z,11.25
2022-09-30T05:32:25.824Z,11.25
2022-09-30T05:33:25.810Z,11.25
2022-09-30T05:34:25.826Z,16.88
2022-09-30T05:35:25.795Z,16.88
2022-09-30T05:36:25.778Z,16.88
2022-09-30T05:37:25.762Z,16.88
2022-09-30T05:38:25.754Z,16.88
2022-09-30T05:39:26.764Z,22.50
2022-09-30T05:40:25.736Z,22.50
2022-09-30T05:41:25.733Z,22.50
2022-09-30T05:42:25.720Z,22.50
2022-09-30T05:43:25.717Z,22.50
2022-09-30T05:44:25.695Z,28.12
2022-09-30T05:45:25.707Z,28.12
2022-09-30T05:46:25.713Z,28.12
2022-09-30T05:47:25.673Z,28.12
2022-09-30T05:48:25.727Z,33.75
2022-09-30T05:49:25.687Z,33.75
2022-09-30T05:50:25.643Z,33.75
2022-09-30T05:51:25.626Z,33.75
2022-09-30T05:52:25.618Z,33.75
2022-09-30T05:53:25.607Z,33.75
2022-09-30T05:54:25.635Z,39.38
2022-09-30T05:55:25.599Z,39.38
2022-09-30T05:56:25.589Z,39.38
2022-09-30T05:57:25.566Z,39.38
2022-09-30T05:58:25.558Z,45.00
2022-09-30T05:59:25.564Z,45.00
2022-09-30T06:00:25.541Z,45.00
2022-09-30T06:01:25.547Z,45.00
2022-09-30T06:02:25.670Z,45.00
2022-09-30T06:03:25.523Z,50.62
2022-09-30T06:04:25.505Z,50.62
2022-09-30T06:05:25.484Z,50.62
2022-09-30T06:06:25.512Z,56.25
2022-09-30T06:07:25.488Z,56.25
2022-09-30T06:08:25.462Z,56.25
2022-09-30T06:09:25.656Z,56.25
2022-09-30T06:10:25.440Z,61.88
2022-09-30T06:11:25.436Z,61.88
2022-09-30T06:12:25.435Z,61.88
2022-09-30T06:13:25.411Z,61.88
2022-09-30T06:14:25.424Z,67.50
2022-09-30T06:15:25.388Z,67.50
2022-09-30T06:16:25.422Z,67.50
2022-09-30T06:17:25.377Z,67.50
2022-09-30T06:18:25.381Z,67.50
2022-09-30T06:19:25.350Z,73.12
2022-09-30T06:20:25.353Z,73.12
2022-09-30T06:21:25.331Z,73.12
2022-09-30T06:22:25.316Z,73.12
2022-09-30T06:23:25.310Z,73.12
2022-09-30T06:24:25.351Z,73.12
2022-09-30T06:25:25.294Z,73.12
2022-09-30T06:26:25.276Z,78.75
2022-09-30T06:27:25.271Z,84.38
2022-09-30T06:28:25.270Z,84.38
2022-09-30T06:29:25.295Z,84.38
2022-09-30T06:30:25.256Z,90.00
2022-09-30T06:31:25.314Z,90.00
2022-09-30T06:32:25.224Z,95.62
2022-09-30T06:33:25.209Z,95.62
2022-09-30T06:34:25.218Z,95.62
2022-09-30T06:35:25.197Z,95.62
2022-09-30T06:36:25.207Z,95.62
2022-09-30T06:37:25.197Z,101.25
2022-09-30T06:38:25.188Z,101.25
2022-09-30T06:39:25.145Z,101.25
2022-09-30T06:40:25.140Z,101.25
2022-09-30T06:41:25.148Z,101.25
2022-09-30T06:42:26.117Z,101.25
2022-09-30T06:43:25.123Z,101.25
2022-09-30T06:44:25.107Z,101.25
2022-09-30T06:45:32.280Z,101.25
2022-09-30T06:46:31.049Z,101.25
2022-09-30T06:47:26.392Z,101.25
2022-09-30T06:48:36.284Z,106.88
2022-09-30T06:49:26.963Z,112.50
2022-09-30T06:50:25.889Z,118.12
2022-09-30T06:51:26.052Z,123.75
2022-09-30T06:52:25.030Z,129.38
2022-09-30T06:53:25.015Z,135.00
2022-09-30T06:54:25.020Z,140.62
2022-09-30T06:55:24.998Z,146.25
2022-09-30T06:56:25.000Z,157.50
2022-09-30T06:57:24.986Z,157.50
2022-09-30T06:58:24.973Z,157.50
2022-09-30T06:59:24.972Z,163.12
2022-09-30T07:00:25.001Z,163.12
2022-09-30T07:01:25.027Z,163.12
2022-09-30T07:02:24.949Z,168.75
2022-09-30T07:03:24.948Z,157.50
2022-09-30T07:04:24.942Z,163.12
2022-09-30T07:05:24.882Z,157.50
2022-09-30T07:06:24.901Z,163.12
2022-09-30T07:07:24.879Z,168.75
2022-09-30T07:08:24.862Z,168.75
2022-09-30T07:09:25.021Z,174.38
2022-09-30T07:10:24.891Z,174.38
2022-09-30T07:11:24.861Z,180.00
2022-09-30T07:12:24.829Z,180.00
2022-09-30T07:13:24.817Z,180.00
2022-09-30T07:14:24.830Z,185.62
2022-09-30T07:15:24.802Z,196.88
2022-09-30T07:16:24.843Z,202.50
2022-09-30T07:17:24.769Z,208.12
2022-09-30T07:18:25.769Z,208.12
2022-09-30T07:19:24.910Z,202.50
2022-09-30T07:20:24.761Z,208.12
2022-09-30T07:21:24.746Z,208.12
2022-09-30T07:22:24.742Z,213.75
2022-09-30T07:23:26.985Z,213.75
2022-09-30T07:24:24.751Z,213.75
2022-09-30T07:25:24.706Z,213.75
2022-09-30T07:26:24.700Z,202.50
2022-09-30T07:27:24.694Z,202.50
2022-09-30T07:28:24.665Z,208.12
2022-09-30T07:29:24.849Z,213.75
2022-09-30T07:30:27.388Z,213.75
2022-09-30T07:31:34.705Z,213.75
2022-09-30T07:32:26.681Z,219.38
2022-09-30T07:33:24.627Z,219.38
2022-09-30T07:34:24.622Z,219.38
2022-09-30T07:35:24.626Z,219.38
2022-09-30T07:36:27.254Z,230.62
2022-09-30T07:37:26.586Z,241.88
2022-09-30T07:38:24.578Z,253.12
2022-09-30T07:39:24.679Z,247.50
2022-09-30T07:40:24.627Z,241.88
2022-09-30T07:41:24.556Z,236.25
2022-09-30T07:42:24.549Z,230.62
2022-09-30T07:43:24.533Z,236.25
2022-09-30T07:44:24.528Z,241.88
2022-09-30T07:45:24.553Z,247.50
2022-09-30T07:46:24.492Z,258.75
2022-09-30T07:47:24.508Z,270.00
2022-09-30T07:48:24.473Z,286.88
2022-09-30T07:49:25.041Z,281.25
2022-09-30T07:50:24.466Z,286.88
2022-09-30T07:51:24.448Z,298.12
2022-09-30T07:52:24.479Z,303.75
2022-09-30T07:53:24.419Z,303.75
2022-09-30T07:54:24.421Z,315.00
2022-09-30T07:55:24.414Z,348.75
2022-09-30T07:56:24.395Z,371.25
2022-09-30T07:57:24.392Z,376.88
2022-09-30T07:58:24.397Z,376.88
2022-09-30T07:59:24.535Z,376.88
2022-09-30T08:00:41.616Z,365.62
2022-09-30T08:01:26.412Z,348.75
2022-09-30T08:02:24.379Z,348.75
2022-09-30T08:03:24.329Z,348.75
2022-09-30T08:04:24.338Z,348.75
2022-09-30T08:05:24.305Z,348.75
2022-09-30T08:06:24.297Z,360.00
2022-09-30T08:07:24.288Z,365.62
2022-09-30T08:08:24.287Z,354.38
2022-09-30T08:09:24.338Z,376.88
2022-09-30T08:10:24.284Z,371.25
2022-09-30T08:11:24.250Z,360.00
2022-09-30T08:12:35.584Z,371.25
2022-09-30T08:13:24.262Z,365.62
2022-09-30T08:14:24.328Z,376.88
2022-09-30T08:15:24.239Z,360.00
2022-09-30T08:16:24.208Z,354.38
2022-09-30T08:17:24.208Z,376.88
2022-09-30T08:18:24.190Z,371.25
2022-09-30T08:19:24.173Z,371.25
2022-09-30T08:20:24.169Z,365.62
2022-09-30T08:21:24.150Z,376.88
2022-09-30T08:22:24.187Z,382.50
2022-09-30T08:23:24.140Z,382.50
2022-09-30T08:24:24.233Z,382.50
2022-09-30T08:25:24.105Z,388.12
2022-09-30T08:26:24.100Z,382.50
2022-09-30T08:27:24.188Z,393.75
2022-09-30T08:28:24.078Z,393.75
2022-09-30T08:30:25.072Z,405.00
2022-09-30T08:31:24.092Z,421.88
2022-09-30T08:32:24.039Z,427.50
2022-09-30T08:33:24.048Z,433.12
2022-09-30T08:34:24.196Z,438.75
2022-09-30T08:35:24.025Z,444.38
2022-09-30T08:36:23.998Z,489.38
2022-09-30T08:37:24.020Z,551.25
2022-09-30T08:38:24.022Z,579.38
2022-09-30T08:39:23.979Z,579.38
2022-09-30T08:40:23.966Z,585.00
2022-09-30T08:41:23.949Z,573.75
2022-09-30T08:42:42.420Z,579.38
2022-09-30T08:43:25.960Z,562.50
2022-09-30T08:44:24.075Z,601.88
2022-09-30T08:45:23.919Z,646.88
2022-09-30T08:46:23.949Z,663.75
2022-09-30T08:47:23.898Z,691.88
2022-09-30T08:48:23.912Z,753.75
2022-09-30T08:49:24.035Z,742.50
2022-09-30T08:50:23.866Z,708.75
2022-09-30T08:51:23.853Z,691.88
2022-09-30T08:52:30.364Z,686.25
2022-09-30T08:53:24.846Z,691.88
2022-09-30T08:54:23.827Z,748.12
2022-09-30T08:55:23.808Z,798.75
2022-09-30T08:56:23.816Z,810.00
2022-09-30T08:57:23.790Z,838.12
2022-09-30T08:58:23.789Z,883.12
2022-09-30T08:59:23.889Z,922.50
2022-09-30T09:00:23.756Z,933.75
2022-09-30T09:01:23.822Z,1023.75
2022-09-30T09:02:23.808Z,1063.12
2022-09-30T09:03:23.736Z,1074.38
2022-09-30T09:04:23.820Z,990.00
2022-09-30T09:05:23.753Z,804.38
2022-09-30T09:06:23.723Z,787.50
2022-09-30T09:07:23.705Z,759.38
2022-09-30T09:08:23.703Z,748.12
2022-09-30T09:09:23.746Z,821.25
2022-09-30T09:10:23.657Z,945.00
2022-09-30T09:11:24.687Z,978.75
2022-09-30T09:12:23.651Z,1063.12
2022-09-30T09:13:23.629Z,945.00
2022-09-30T09:14:23.628Z,956.25
2022-09-30T09:15:23.635Z,990.00
2022-09-30T09:16:23.698Z,984.38
2022-09-30T09:17:23.626Z,1040.62
2022-09-30T09:18:24.801Z,1108.12
2022-09-30T09:19:24.694Z,1063.12
2022-09-30T09:20:23.561Z,990.00
2022-09-30T09:21:23.579Z,939.38
2022-09-30T09:22:24.940Z,911.25
2022-09-30T09:23:24.542Z,905.62
2022-09-30T09:24:23.538Z,866.25
2022-09-30T09:25:23.524Z,883.12
2022-09-30T09:26:23.499Z,804.38
2022-09-30T09:27:23.533Z,742.50
2022-09-30T09:28:23.536Z,798.75
2022-09-30T09:29:23.583Z,905.62
2022-09-30T09:30:23.471Z,877.50
2022-09-30T09:31:23.504Z,815.62
2022-09-30T09:32:23.462Z,843.75
2022-09-30T09:33:23.442Z,849.38
2022-09-30T09:34:23.452Z,849.38
2022-09-30T09:35:23.429Z,770.62
2022-09-30T09:36:23.417Z,691.88
2022-09-30T09:37:23.401Z,590.62
2022-09-30T09:38:23.395Z,714.38
2022-09-30T09:39:23.495Z,652.50
2022-09-30T09:40:23.366Z,624.38
2022-09-30T09:41:23.363Z,703.12
2022-09-30T09:42:23.353Z,697.50
2022-09-30T09:43:26.187Z,680.62
2022-09-30T09:44:24.490Z,675.00
2022-09-30T09:45:23.329Z,663.75
2022-09-30T09:46:23.336Z,658.12
2022-09-30T09:47:23.296Z,658.12
2022-09-30T09:48:23.303Z,652.50
2022-09-30T09:49:23.272Z,646.88
2022-09-30T09:50:23.263Z,646.88
2022-09-30T09:51:23.244Z,641.25
2022-09-30T09:52:23.255Z,646.88
2022-09-30T09:53:23.238Z,641.25
2022-09-30T09:54:23.377Z,635.62
2022-09-30T09:55:23.205Z,635.62
2022-09-30T09:56:23.199Z,630.00
2022-09-30T09:57:23.193Z,624.38
2022-09-30T09:58:23.189Z,624.38
2022-09-30T09:59:23.411Z,618.75
2022-09-30T10:00:23.168Z,618.75
2022-09-30T10:01:23.226Z,613.12
2022-09-30T10:02:23.220Z,613.12
2022-09-30T10:03:23.130Z,607.50
2022-09-30T10:04:23.214Z,607.50
2022-09-30T10:05:23.105Z,607.50
2022-09-30T10:06:23.092Z,601.88
2022-09-30T10:07:23.112Z,607.50
2022-09-30T10:08:23.078Z,596.25
2022-09-30T10:09:23.196Z,596.25
2022-09-30T10:10:24.259Z,590.62
2022-09-30T10:11:24.050Z,585.00
2022-09-30T10:12:23.037Z,585.00
2022-09-30T10:13:23.044Z,579.38
2022-09-30T10:14:23.168Z,579.38
2022-09-30T10:15:23.014Z,579.38
2022-09-30T10:16:22.997Z,573.75
2022-09-30T10:17:23.069Z,573.75
2022-09-30T10:18:22.975Z,568.12
2022-09-30T10:19:22.968Z,568.12
2022-09-30T10:20:22.963Z,562.50
2022-09-30T10:21:22.945Z,568.12
2022-09-30T10:22:22.956Z,556.88
2022-09-30T10:23:22.937Z,551.25
2022-09-30T10:24:23.008Z,551.25
2022-09-30T10:25:22.927Z,545.62
2022-09-30T10:26:22.961Z,545.62
2022-09-30T10:27:22.885Z,540.00
2022-09-30T10:28:22.975Z,540.00
2022-09-30T10:29:22.892Z,534.38
2022-09-30T10:30:22.882Z,534.38
2022-09-30T10:31:22.970Z,528.75
2022-09-30T10:32:22.883Z,528.75
2022-09-30T10:33:22.831Z,523.12
2022-09-30T10:34:22.855Z,523.12
2022-09-30T10:35:22.815Z,517.50
2022-09-30T10:36:22.802Z,517.50
2022-09-30T10:37:22.788Z,517.50
2022-09-30T10:38:22.785Z,511.88
2022-09-30T10:39:22.792Z,511.88
2022-09-30T10:40:22.760Z,511.88
2022-09-30T10:41:22.829Z,506.25
2022-09-30T10:42:26.370Z,511.88
2022-09-30T10:43:23.745Z,500.62
2022-09-30T10:44:22.708Z,500.62
2022-09-30T10:45:22.716Z,495.00
2022-09-30T10:46:26.201Z,500.62
2022-09-30T10:47:23.693Z,489.38
2022-09-30T10:48:22.681Z,489.38
2022-09-30T10:49:22.668Z,483.75
2022-09-30T10:50:22.769Z,483.75
2022-09-30T10:51:22.667Z,478.12
2022-09-30T10:52:22.662Z,478.12
2022-09-30T10:53:22.616Z,472.50
2022-09-30T10:54:23.626Z,472.50
2022-09-30T10:55:22.610Z,466.88
2022-09-30T10:56:22.600Z,472.50
2022-09-30T10:57:22.610Z,472.50
2022-09-30T10:58:22.579Z,466.88
2022-09-30T10:59:22.574Z,461.25
2022-09-30T11:00:22.569Z,461.25
2022-09-30T11:01:22.622Z,455.62
2022-09-30T11:02:22.715Z,455.62
2022-09-30T11:03:22.578Z,455.62
2022-09-30T11:04:22.536Z,455.62
2022-09-30T11:05:22.507Z,450.00
2022-09-30T11:06:22.520Z,450.00
2022-09-30T11:07:22.501Z,450.00
2022-09-30T11:08:22.511Z,450.00
2022-09-30T11:09:22.679Z,450.00
2022-09-30T11:10:22.492Z,450.00
2022-09-30T11:11:22.465Z,450.00
2022-09-30T11:12:22.459Z,444.38
2022-09-30T11:13:22.481Z,444.38
2022-09-30T11:14:22.431Z,444.38
2022-09-30T11:15:22.425Z,444.38
2022-09-30T11:16:22.445Z,444.38
2022-09-30T11:17:22.937Z,444.38
2022-09-30T11:18:23.393Z,444.38
2022-09-30T11:19:22.368Z,438.75
2022-09-30T11:20:22.381Z,438.75
2022-09-30T11:21:22.351Z,438.75
2022-09-30T11:22:22.343Z,438.75
2022-09-30T11:23:22.320Z,438.75
2022-09-30T11:24:22.345Z,438.75
2022-09-30T11:25:22.308Z,433.12
2022-09-30T11:26:22.306Z,433.12
2022-09-30T11:27:22.300Z,433.12
2022-09-30T11:28:22.326Z,433.12
2022-09-30T11:29:22.511Z,433.12
2022-09-30T11:30:23.272Z,433.12
2022-09-30T11:31:22.313Z,433.12
2022-09-30T11:32:22.282Z,433.12
2022-09-30T11:33:22.275Z,433.12
2022-09-30T11:34:22.219Z,427.50
2022-09-30T11:35:22.215Z,438.75
2022-09-30T11:36:22.198Z,433.12
2022-09-30T11:37:22.212Z,433.12
2022-09-30T11:38:22.195Z,427.50
2022-09-30T11:39:22.181Z,427.50
2022-09-30T11:40:22.155Z,427.50
2022-09-30T11:41:22.154Z,427.50
2022-09-30T11:42:22.180Z,427.50
2022-09-30T11:43:22.129Z,427.50
2022-09-30T11:44:22.118Z,421.88
2022-09-30T11:45:22.106Z,421.88
2022-09-30T11:46:22.106Z,421.88
2022-09-30T11:47:22.096Z,421.88
2022-09-30T11:48:22.104Z,421.88
2022-09-30T11:49:22.096Z,421.88
2022-09-30T11:50:22.056Z,421.88
2022-09-30T11:51:22.049Z,421.88
2022-09-30T11:52:22.034Z,427.50
2022-09-30T11:53:22.542Z,427.50
2022-09-30T11:54:22.035Z,421.88
2022-09-30T11:55:22.072Z,421.88
2022-09-30T11:56:22.006Z,421.88
2022-09-30T11:57:21.993Z,427.50
2022-09-30T11:58:40.397Z,427.50
2022-09-30T11:59:23.978Z,427.50
2022-09-30T12:00:21.980Z,427.50
2022-09-30T12:01:21.942Z,427.50
2022-09-30T12:02:21.951Z,427.50
2022-09-30T12:03:21.970Z,427.50
2022-09-30T12:04:21.924Z,427.50
2022-09-30T12:05:21.913Z,433.12
2022-09-30T12:06:21.917Z,427.50
2022-09-30T12:07:21.910Z,427.50
2022-09-30T12:08:21.878Z,427.50
2022-09-30T12:09:21.868Z,427.50
2022-09-30T12:10:21.858Z,433.12
2022-09-30T12:11:21.860Z,433.12
2022-09-30T12:12:21.854Z,433.12
2022-09-30T12:13:21.830Z,433.12
2022-09-30T12:14:21.833Z,433.12
2022-09-30T12:15:21.812Z,438.75
2022-09-30T12:16:21.833Z,438.75
2022-09-30T12:17:21.819Z,444.38
2022-09-30T12:18:21.772Z,444.38
2022-09-30T12:19:25.294Z,444.38
2022-09-30T12:20:22.760Z,444.38
2022-09-30T12:21:21.778Z,444.38
2022-09-30T12:22:21.746Z,444.38
2022-09-30T12:23:21.736Z,450.00
2022-09-30T12:24:21.737Z,450.00
2022-09-30T12:25:21.709Z,450.00
2022-09-30T12:26:21.701Z,455.62
2022-09-30T12:27:21.693Z,455.62
2022-09-30T12:28:21.727Z,461.25
2022-09-30T12:29:21.689Z,472.50
2022-09-30T12:30:21.657Z,472.50
2022-09-30T12:31:21.712Z,472.50
2022-09-30T12:32:21.649Z,478.12
2022-09-30T12:33:21.627Z,483.75
2022-09-30T12:34:21.651Z,405.00
2022-09-30T12:35:21.627Z,309.38
2022-09-30T12:36:21.598Z,315.00
2022-09-30T12:37:21.590Z,315.00
2022-09-30T12:38:21.580Z,360.00
2022-09-30T12:39:21.566Z,461.25
2022-09-30T12:40:21.588Z,343.12
2022-09-30T12:41:21.557Z,348.75
2022-09-30T12:42:21.550Z,348.75
2022-09-30T12:43:21.529Z,348.75
2022-09-30T12:44:21.529Z,348.75
2022-09-30T12:45:21.539Z,343.12
2022-09-30T12:46:21.628Z,331.88
2022-09-30T12:47:21.507Z,320.62
2022-09-30T12:48:21.482Z,309.38
2022-09-30T12:49:21.486Z,298.12
2022-09-30T12:50:21.468Z,303.75
2022-09-30T12:51:21.466Z,320.62